createdAt,value
2022-11-30T00:00:40.713Z,109.86
2022-11-30T00:01:25.862Z,109.86
2022-11-30T00:02:11.340Z,109.86
2022-11-30T00:02:55.759Z,109.86
2022-11-30T00:03:41.032Z,109.86
2022-11-30T00:04:25.782Z,109.86
2022-11-30T00:05:10.975Z,109.86
2022-11-30T00:05:55.895Z,109.86
2022-11-30T00:06:41.053Z,109.86
2022-11-30T00:07:26.420Z,109.86
2022-11-30T00:08:11.268Z,109.86
2022-11-30T00:08:56.016Z,109.86
2022-11-30T00:09:41.398Z,109.86
2022-11-30T00:10:26.352Z,109.86
2022-11-30T00:11:11.087Z,109.86
2022-11-30T00:11:56.347Z,109.86
2022-11-30T00:12:41.710Z,8.66
2022-11-30T00:13:27.895Z,8.66
2022-11-30T00:14:14.401Z,8.66
2022-11-30T00:14:56.878Z,8.66
2022-11-30T00:15:41.936Z,8.66
2022-11-30T00:16:26.751Z,8.66
2022-11-30T00:17:11.944Z,8.66
2022-11-30T00:17:57.019Z,8.66
2022-11-30T00:18:41.960Z,8.66
2022-11-30T00:19:27.222Z,8.66
2022-11-30T00:20:12.275Z,8.66
2022-11-30T00:20:57.336Z,8.66
2022-11-30T00:21:42.494Z,8.66
2022-11-30T00:22:27.348Z,8.66
2022-11-30T00:23:12.398Z,8.66
2022-11-30T00:23:57.453Z,8.66
2022-11-30T00:24:43.440Z,8.66
2022-11-30T00:25:28.386Z,8.66
2022-11-30T00:26:12.727Z,8.66
2022-11-30T00:26:57.745Z,8.66
2022-11-30T00:27:42.461Z,8.66
2022-11-30T00:28:27.912Z,8.66
2022-11-30T00:29:14.691Z,8.66
2022-11-30T00:29:58.416Z,8.66
2022-11-30T00:30:43.051Z,8.66
2022-11-30T00:31:28.137Z,8.66
2022-11-30T00:32:12.869Z,8.66
2022-11-30T00:32:58.030Z,8.66
2022-11-30T00:33:43.234Z,8.66
2022-11-30T00:34:28.196Z,8.66
2022-11-30T00:35:13.099Z,8.66
2022-11-30T00:36:00.109Z,8.66
2022-11-30T00:36:43.315Z,8.66
2022-11-30T00:37:28.479Z,8.66
2022-11-30T00:38:13.428Z,8.66
2022-11-30T00:38:58.377Z,8.66
2022-11-30T00:39:43.533Z,8.66
2022-11-30T00:40:28.752Z,8.66
2022-11-30T00:41:13.445Z,4.97
2022-11-30T00:41:58.398Z,3.32
2022-11-30T00:42:43.459Z,3.27
2022-11-30T00:43:28.309Z,3.18
2022-11-30T00:44:13.462Z,3.09
2022-11-30T00:45:02.757Z,3.09
2022-11-30T00:45:43.947Z,3.09
2022-11-30T00:46:29.094Z,3.09
2022-11-30T00:47:14.013Z,3.09
2022-11-30T00:47:58.993Z,3.09
2022-11-30T00:48:44.327Z,3.09
2022-11-30T00:49:28.762Z,3.14
2022-11-30T00:50:13.970Z,3.14
2022-11-30T00:50:59.077Z,3.18
2022-11-30T00:51:44.267Z,3.18
2022-11-30T00:52:29.409Z,3.04
2022-11-30T00:53:16.293Z,3.04
2022-11-30T00:53:59.621Z,3.04
2022-11-30T00:54:45.261Z,3.04
2022-11-30T00:55:30.533Z,3.04
2022-11-30T00:56:14.775Z,3.04
2022-11-30T00:56:59.832Z,3.04
2022-11-30T00:57:44.993Z,3.04
2022-11-30T00:58:30.159Z,3.04
2022-11-30T00:59:15.278Z,3.04
2022-11-30T01:00:00.212Z,3.04
2022-11-30T01:00:45.217Z,3.04
2022-11-30T01:01:30.212Z,3.04
2022-11-30T01:02:15.720Z,3.04
2022-11-30T01:03:26.194Z,64.92
2022-11-30T01:04:10.988Z,76.90
2022-11-30T01:04:56.112Z,72.91
2022-11-30T01:05:41.060Z,80.88
2022-11-30T01:06:26.001Z,77.90
2022-11-30T01:07:10.962Z,74.91
2022-11-30T01:07:56.359Z,68.91
2022-11-30T01:08:41.499Z,118.85
2022-11-30T01:09:26.337Z,110.86
2022-11-30T01:10:11.290Z,107.86
2022-11-30T01:10:56.348Z,107.86
2022-11-30T01:11:41.403Z,107.86
2022-11-30T01:12:26.765Z,102.87
2022-11-30T01:13:11.722Z,108.86
2022-11-30T01:13:56.165Z,97.88
2022-11-30T01:14:41.648Z,102.82
2022-11-30T01:15:26.685Z,100.87
2022-11-30T01:16:11.781Z,106.86
2022-11-30T01:16:56.704Z,106.86
2022-11-30T01:17:41.751Z,101.87
2022-11-30T01:18:26.911Z,111.86
2022-11-30T01:19:12.280Z,103.87
2022-11-30T01:19:57.025Z,95.88
2022-11-30T01:20:41.875Z,95.88
2022-11-30T01:21:27.772Z,113.86
2022-11-30T01:22:12.106Z,114.85
2022-11-30T01:22:57.247Z,103.87
2022-11-30T01:23:42.325Z,103.87
2022-11-30T01:24:27.263Z,97.88
2022-11-30T01:25:12.218Z,96.88
2022-11-30T01:25:57.384Z,92.88
2022-11-30T01:26:42.325Z,91.88
2022-11-30T01:27:27.285Z,74.91
2022-11-30T01:28:12.440Z,74.91
2022-11-30T01:28:57.705Z,116.85
2022-11-30T01:29:42.754Z,110.86
2022-11-30T01:30:27.701Z,99.87
2022-11-30T01:31:12.699Z,92.88
2022-11-30T01:31:57.619Z,88.89
2022-11-30T01:32:42.674Z,92.88
2022-11-30T01:33:27.753Z,92.88
2022-11-30T01:34:12.995Z,89.89
2022-11-30T01:34:57.843Z,87.89
2022-11-30T01:35:42.898Z,87.89
2022-11-30T01:36:28.168Z,81.90
2022-11-30T01:37:13.231Z,74.93
2022-11-30T01:37:58.180Z,76.93
2022-11-30T01:38:43.129Z,86.92
2022-11-30T01:39:28.309Z,87.89
2022-11-30T01:40:13.649Z,93.88
2022-11-30T01:40:58.915Z,93.92
2022-11-30T01:41:43.452Z,87.92
2022-11-30T01:42:28.421Z,87.92
2022-11-30T01:43:13.462Z,73.94
2022-11-30T01:43:58.432Z,228.80
2022-11-30T01:44:43.373Z,317.72
2022-11-30T01:45:28.222Z,323.72
2022-11-30T01:46:13.736Z,78.90
2022-11-30T01:46:58.662Z,70.91
2022-11-30T01:47:43.802Z,66.90
2022-11-30T01:48:28.755Z,68.90
2022-11-30T01:49:13.851Z,65.90
2022-11-30T01:49:58.664Z,63.89
2022-11-30T01:50:44.029Z,97.85
2022-11-30T01:51:28.985Z,324.51
2022-11-30T01:52:14.059Z,263.60
2022-11-30T01:52:58.993Z,78.88
2022-11-30T01:53:44.256Z,77.88
2022-11-30T01:54:29.315Z,77.88
2022-11-30T01:55:14.184Z,75.89
2022-11-30T01:55:59.321Z,76.88
2022-11-30T01:56:44.376Z,72.89
2022-11-30T01:57:29.538Z,100.85
2022-11-30T01:58:14.489Z,89.86
2022-11-30T01:58:59.349Z,155.77
2022-11-30T01:59:44.400Z,321.52
2022-11-30T02:00:29.666Z,327.59
2022-11-30T02:01:14.523Z,330.50
2022-11-30T02:01:59.568Z,171.74
2022-11-30T02:02:44.769Z,235.64
2022-11-30T02:03:29.585Z,81.88
2022-11-30T02:04:14.732Z,88.87
2022-11-30T02:04:59.999Z,127.81
2022-11-30T02:05:45.052Z,103.84
2022-11-30T02:06:29.834Z,156.76
2022-11-30T02:07:14.983Z,334.50
2022-11-30T02:08:00.051Z,155.77
2022-11-30T02:08:45.102Z,328.58
2022-11-30T02:09:30.179Z,103.87
2022-11-30T02:10:15.320Z,104.87
2022-11-30T02:11:00.153Z,109.86
2022-11-30T02:11:45.195Z,114.85
2022-11-30T02:12:30.254Z,126.84
2022-11-30T02:13:15.428Z,104.87
2022-11-30T02:14:00.575Z,96.88
2022-11-30T02:14:45.589Z,96.88
2022-11-30T02:15:30.849Z,96.88
2022-11-30T02:16:15.753Z,96.88
2022-11-30T02:17:00.971Z,96.88
2022-11-30T02:17:46.328Z,96.88
2022-11-30T02:18:31.321Z,96.88
2022-11-30T02:19:16.377Z,96.88
2022-11-30T02:20:01.547Z,96.88
2022-11-30T02:20:46.387Z,96.88
2022-11-30T02:21:31.446Z,96.88
2022-11-30T02:22:16.706Z,96.88
2022-11-30T02:23:01.610Z,96.88
2022-11-30T02:23:46.513Z,96.88
2022-11-30T02:24:31.665Z,96.88
2022-11-30T02:25:16.859Z,96.88
2022-11-30T02:26:01.893Z,96.88
2022-11-30T02:26:46.349Z,96.88
2022-11-30T02:27:31.590Z,96.88
2022-11-30T02:28:16.745Z,96.88
2022-11-30T02:29:01.571Z,309.61
2022-11-30T02:29:46.554Z,332.58
2022-11-30T02:30:32.027Z,332.58
2022-11-30T02:31:17.489Z,332.58
2022-11-30T02:32:02.164Z,332.58
2022-11-30T02:32:47.083Z,332.58
2022-11-30T02:33:32.755Z,332.58
2022-11-30T02:34:17.106Z,332.58
2022-11-30T02:35:03.132Z,332.58
2022-11-30T02:35:50.247Z,332.58
2022-11-30T02:36:31.832Z,161.80
2022-11-30T02:37:16.970Z,335.58
2022-11-30T02:38:02.527Z,331.58
2022-11-30T02:38:47.325Z,331.58
2022-11-30T02:39:32.485Z,331.58
2022-11-30T02:40:18.182Z,331.58
2022-11-30T02:41:02.510Z,331.58
2022-11-30T02:41:47.657Z,331.58
2022-11-30T02:42:32.510Z,331.58
2022-11-30T02:43:18.074Z,331.58
2022-11-30T02:44:03.988Z,331.58
2022-11-30T02:44:48.741Z,331.58
2022-11-30T02:45:32.634Z,331.58
2022-11-30T02:46:18.236Z,331.58
2022-11-30T02:47:03.155Z,331.58
2022-11-30T02:47:48.109Z,331.58
2022-11-30T02:48:33.679Z,331.58
2022-11-30T02:49:18.220Z,331.58
2022-11-30T02:50:03.697Z,331.58
2022-11-30T02:50:48.967Z,331.58
2022-11-30T02:51:34.110Z,331.58
2022-11-30T02:52:18.903Z,331.58
2022-11-30T02:53:05.044Z,331.58
2022-11-30T02:53:48.562Z,331.58
2022-11-30T02:54:33.508Z,331.58
2022-11-30T02:55:18.668Z,331.58
2022-11-30T02:56:03.788Z,331.58
2022-11-30T02:56:48.561Z,126.27
2022-11-30T02:57:33.845Z,126.27
2022-11-30T02:58:19.015Z,126.27
2022-11-30T02:59:04.060Z,126.27
2022-11-30T02:59:49.115Z,126.27
2022-11-30T03:00:33.864Z,126.27
2022-11-30T03:01:19.002Z,126.27
2022-11-30T03:02:03.973Z,126.27
2022-11-30T03:02:49.206Z,126.27
2022-11-30T03:03:34.193Z,126.27
2022-11-30T03:04:19.351Z,126.27
2022-11-30T03:05:04.375Z,126.27
2022-11-30T03:05:49.300Z,126.27
2022-11-30T03:06:34.325Z,126.27
2022-11-30T03:07:19.522Z,126.27
2022-11-30T03:08:05.267Z,126.27
2022-11-30T03:08:49.484Z,126.27
2022-11-30T03:09:35.151Z,126.27
2022-11-30T03:10:19.599Z,126.27
2022-11-30T03:11:04.388Z,126.27
2022-11-30T03:11:49.608Z,126.27
2022-11-30T03:12:34.560Z,126.27
2022-11-30T03:13:19.413Z,126.27
2022-11-30T03:14:04.397Z,126.27
2022-11-30T03:14:50.030Z,126.27
2022-11-30T03:15:34.931Z,126.27
2022-11-30T03:16:19.965Z,126.27
2022-11-30T03:17:05.006Z,126.27
2022-11-30T03:17:49.650Z,322.59
2022-11-30T03:18:34.925Z,109.86
2022-11-30T03:19:19.559Z,113.86
2022-11-30T03:20:05.338Z,280.64
2022-11-30T03:20:50.304Z,280.64
2022-11-30T03:21:35.652Z,280.64
2022-11-30T03:22:20.507Z,280.64
2022-11-30T03:23:05.665Z,280.64
2022-11-30T03:23:52.563Z,280.64
2022-11-30T03:24:35.263Z,280.64
2022-11-30T03:25:20.344Z,280.64
2022-11-30T03:26:05.595Z,280.64
2022-11-30T03:26:50.353Z,280.64
2022-11-30T03:27:35.606Z,280.64
2022-11-30T03:28:20.546Z,280.64
2022-11-30T03:29:05.951Z,280.64
2022-11-30T03:29:51.169Z,280.64
2022-11-30T03:30:35.818Z,280.64
2022-11-30T03:31:21.325Z,280.64
2022-11-30T03:32:06.240Z,280.64
2022-11-30T03:32:50.885Z,280.64
2022-11-30T03:33:37.475Z,280.64
2022-11-30T03:34:20.589Z,115.84
2022-11-30T03:35:06.667Z,115.84
2022-11-30T03:35:51.109Z,115.84
2022-11-30T03:36:36.372Z,115.84
2022-11-30T03:37:21.347Z,115.84
2022-11-30T03:38:07.101Z,115.84
2022-11-30T03:38:51.440Z,115.84
2022-11-30T03:39:36.541Z,115.84
2022-11-30T03:40:21.548Z,115.84
2022-11-30T03:41:06.297Z,115.84
2022-11-30T03:41:53.504Z,115.84
2022-11-30T03:42:36.615Z,115.84
2022-11-30T03:43:21.878Z,115.84
2022-11-30T03:44:07.036Z,115.84
2022-11-30T03:44:51.892Z,115.84
2022-11-30T03:45:36.644Z,115.84
2022-11-30T03:46:21.839Z,115.84
2022-11-30T03:47:07.062Z,115.84
2022-11-30T03:47:51.708Z,115.84
2022-11-30T03:48:36.891Z,115.84
2022-11-30T03:49:21.845Z,115.84
2022-11-30T03:50:07.083Z,115.84
2022-11-30T03:50:51.831Z,115.84
2022-11-30T03:51:36.987Z,115.84
2022-11-30T03:52:22.151Z,115.84
2022-11-30T03:53:07.303Z,115.84
2022-11-30T03:53:53.996Z,115.84
2022-11-30T03:54:39.373Z,115.84
2022-11-30T03:55:24.133Z,115.84
2022-11-30T03:56:07.837Z,115.84
2022-11-30T03:56:54.735Z,115.84
2022-11-30T03:57:37.754Z,115.84
2022-11-30T03:58:22.601Z,115.84
2022-11-30T03:59:07.341Z,115.84
2022-11-30T03:59:52.503Z,115.84
2022-11-30T04:00:37.969Z,115.84
2022-11-30T04:01:23.086Z,115.84
2022-11-30T04:02:08.435Z,115.84
2022-11-30T04:02:53.377Z,115.84
2022-11-30T04:03:38.015Z,115.84
2022-11-30T04:04:23.360Z,115.84
2022-11-30T04:05:08.306Z,115.84
2022-11-30T04:05:53.059Z,115.84
2022-11-30T04:06:38.423Z,115.84
2022-11-30T04:07:23.223Z,115.84
2022-11-30T04:08:10.180Z,115.84
2022-11-30T04:08:54.105Z,115.84
2022-11-30T04:09:38.441Z,115.84
2022-11-30T04:10:24.742Z,115.84
2022-11-30T04:11:08.783Z,115.84
2022-11-30T04:11:54.156Z,115.84
2022-11-30T04:12:38.975Z,115.84
2022-11-30T04:13:23.929Z,115.84
2022-11-30T04:14:08.784Z,115.84
2022-11-30T04:14:54.143Z,115.84
2022-11-30T04:15:39.534Z,115.84
2022-11-30T04:16:24.454Z,115.84
2022-11-30T04:17:09.035Z,115.84
2022-11-30T04:17:54.786Z,115.84
2022-11-30T04:18:39.637Z,115.84
2022-11-30T04:19:24.895Z,115.84
2022-11-30T04:20:09.949Z,115.84
2022-11-30T04:20:54.294Z,115.84
2022-11-30T04:21:39.346Z,115.84
2022-11-30T04:22:24.414Z,115.84
2022-11-30T04:23:09.559Z,115.84
2022-11-30T04:23:54.716Z,115.84
2022-11-30T04:24:39.875Z,115.84
2022-11-30T04:25:24.739Z,115.84
2022-11-30T04:26:09.886Z,115.84
2022-11-30T04:26:54.846Z,115.84
2022-11-30T04:27:39.795Z,115.84
2022-11-30T04:28:24.969Z,115.84
2022-11-30T04:29:10.010Z,115.84
2022-11-30T04:29:55.070Z,115.84
2022-11-30T04:30:40.226Z,115.84
2022-11-30T04:31:25.076Z,115.84
2022-11-30T04:32:09.630Z,9.88
2022-11-30T04:32:54.780Z,18.01
2022-11-30T04:33:39.904Z,19.20
2022-11-30T04:34:24.703Z,13.90
2022-11-30T04:35:09.956Z,12.80
2022-11-30T04:35:55.248Z,5.73
2022-11-30T04:36:42.453Z,5.73
2022-11-30T04:37:25.324Z,5.73
2022-11-30T04:38:10.176Z,5.73
2022-11-30T04:38:55.334Z,5.73
2022-11-30T04:39:42.350Z,5.73
2022-11-30T04:40:25.137Z,3.74
2022-11-30T04:41:12.351Z,4.63
2022-11-30T04:41:55.368Z,4.25
2022-11-30T04:42:40.335Z,6.79
2022-11-30T04:43:25.439Z,7.73
2022-11-30T04:44:10.218Z,6.87
2022-11-30T04:44:55.375Z,5.88
2022-11-30T04:45:42.693Z,5.88
2022-11-30T04:46:26.068Z,5.88
2022-11-30T04:47:10.849Z,5.88
2022-11-30T04:47:57.773Z,5.88
2022-11-30T04:48:40.593Z,5.77
2022-11-30T04:49:25.410Z,15.61
2022-11-30T04:50:10.890Z,67.91
2022-11-30T04:50:55.929Z,66.92
2022-11-30T04:51:40.881Z,56.66
2022-11-30T04:52:25.738Z,38.81
2022-11-30T04:53:10.895Z,52.92
2022-11-30T04:53:55.748Z,46.82
2022-11-30T04:54:40.914Z,13.61
2022-11-30T04:55:26.064Z,13.39
2022-11-30T04:56:11.066Z,7.55
2022-11-30T04:56:56.203Z,5.66
2022-11-30T04:57:41.387Z,5.66
2022-11-30T04:58:26.535Z,5.66
2022-11-30T04:59:11.141Z,43.92
2022-11-30T04:59:58.900Z,43.92
2022-11-30T05:00:41.780Z,43.92
2022-11-30T05:01:26.844Z,43.92
2022-11-30T05:02:12.085Z,43.92
2022-11-30T05:02:56.727Z,43.92
2022-11-30T05:03:41.890Z,43.92
2022-11-30T05:04:27.151Z,43.92
2022-11-30T05:05:13.873Z,43.92
2022-11-30T05:05:57.158Z,43.92
2022-11-30T05:06:42.316Z,43.92
2022-11-30T05:07:27.495Z,43.92
2022-11-30T05:08:12.126Z,43.92
2022-11-30T05:08:57.285Z,43.92
2022-11-30T05:09:42.647Z,43.92
2022-11-30T05:10:27.629Z,43.92
2022-11-30T05:11:14.212Z,43.92
2022-11-30T05:11:59.460Z,43.92
2022-11-30T05:12:42.563Z,4.25
2022-11-30T05:13:28.854Z,4.25
2022-11-30T05:14:13.187Z,4.25
2022-11-30T05:14:58.909Z,4.25
2022-11-30T05:15:43.822Z,4.25
2022-11-30T05:16:31.679Z,4.25
2022-11-30T05:17:15.874Z,4.25
2022-11-30T05:17:57.962Z,6.55
2022-11-30T05:18:42.913Z,4.71
2022-11-30T05:19:27.661Z,4.71
2022-11-30T05:20:12.930Z,6.79
2022-11-30T05:20:58.084Z,7.08
2022-11-30T05:21:45.434Z,4.20
2022-11-30T05:22:30.145Z,4.20
2022-11-30T05:23:13.568Z,4.20
2022-11-30T05:23:58.720Z,4.20
2022-11-30T05:24:43.774Z,4.20
2022-11-30T05:25:28.633Z,4.20
2022-11-30T05:26:14.194Z,4.20
2022-11-30T05:26:58.638Z,4.20
2022-11-30T05:27:43.976Z,4.20
2022-11-30T05:28:28.953Z,4.20
2022-11-30T05:29:13.909Z,4.20
2022-11-30T05:29:58.983Z,4.20
2022-11-30T05:30:44.029Z,4.20
2022-11-30T05:31:29.639Z,4.20
2022-11-30T05:32:14.236Z,4.20
2022-11-30T05:32:59.395Z,4.20
2022-11-30T05:33:44.356Z,4.20
2022-11-30T05:34:29.201Z,4.20
2022-11-30T05:35:14.261Z,4.20
2022-11-30T05:35:59.351Z,4.20
2022-11-30T05:36:44.472Z,4.20
2022-11-30T05:37:29.637Z,4.20
2022-11-30T05:38:14.788Z,4.20
2022-11-30T05:38:59.714Z,4.20
2022-11-30T05:39:44.905Z,4.20
2022-11-30T05:40:29.661Z,4.20
2022-11-30T05:41:14.836Z,4.20
2022-11-30T05:41:59.798Z,4.20
2022-11-30T05:42:45.108Z,4.20
2022-11-30T05:43:29.891Z,4.20
2022-11-30T05:44:15.199Z,4.20
2022-11-30T05:45:00.095Z,4.20
2022-11-30T05:45:45.252Z,4.20
2022-11-30T05:46:30.247Z,4.20
2022-11-30T05:47:15.553Z,4.20
2022-11-30T05:48:00.331Z,4.20
2022-11-30T05:48:45.582Z,4.20
2022-11-30T05:49:30.568Z,4.20
2022-11-30T05:50:15.207Z,4.20
2022-11-30T05:51:00.389Z,4.20
2022-11-30T05:51:45.549Z,4.20
2022-11-30T05:52:30.560Z,4.20
2022-11-30T05:53:15.617Z,4.20
2022-11-30T05:54:00.569Z,4.20
2022-11-30T05:54:45.799Z,4.20
2022-11-30T05:55:30.633Z,4.20
2022-11-30T05:56:15.632Z,4.20
2022-11-30T05:57:00.792Z,4.20
2022-11-30T05:57:45.851Z,4.20
2022-11-30T05:58:31.312Z,4.20
2022-11-30T05:59:15.858Z,4.20
2022-11-30T06:00:01.357Z,4.20
2022-11-30T06:00:45.664Z,4.20
2022-11-30T06:01:30.821Z,4.20
2022-11-30T06:02:15.861Z,4.20
2022-11-30T06:03:01.367Z,4.20
2022-11-30T06:03:45.898Z,4.20
2022-11-30T06:04:31.255Z,4.20
2022-11-30T06:05:16.219Z,4.20
2022-11-30T06:06:03.208Z,4.20
2022-11-30T06:06:49.083Z,4.20
2022-11-30T06:07:31.524Z,4.20
2022-11-30T06:08:16.520Z,4.20
2022-11-30T06:09:01.710Z,4.20
2022-11-30T06:09:46.463Z,4.20
2022-11-30T06:10:31.719Z,4.20
2022-11-30T06:11:17.299Z,4.20
2022-11-30T06:12:01.876Z,4.20
2022-11-30T06:12:46.788Z,4.20
2022-11-30T06:13:31.830Z,4.20
2022-11-30T06:14:16.986Z,4.20
2022-11-30T06:15:01.757Z,4.20
2022-11-30T06:15:46.799Z,4.20
2022-11-30T06:16:31.811Z,4.20
2022-11-30T06:17:17.008Z,4.20
2022-11-30T06:18:01.993Z,4.20
2022-11-30T06:18:47.054Z,4.20
2022-11-30T06:19:33.402Z,4.20
2022-11-30T06:20:17.098Z,10.97
2022-11-30T06:21:02.310Z,66.97
2022-11-30T06:21:47.142Z,27.35
2022-11-30T06:22:32.257Z,82.96
2022-11-30T06:23:17.069Z,78.96
2022-11-30T06:24:02.888Z,76.96
2022-11-30T06:24:47.618Z,79.95
2022-11-30T06:25:32.480Z,84.93
2022-11-30T06:26:17.400Z,87.94
2022-11-30T06:27:02.381Z,86.94
2022-11-30T06:27:47.190Z,92.93
2022-11-30T06:28:32.771Z,90.93
2022-11-30T06:29:17.743Z,87.94
2022-11-30T06:30:02.894Z,71.76
2022-11-30T06:30:47.716Z,70.95
2022-11-30T06:31:32.809Z,60.96
2022-11-30T06:32:17.927Z,67.95
2022-11-30T06:33:02.983Z,54.75
2022-11-30T06:33:47.666Z,49.51
2022-11-30T06:34:32.894Z,56.78
2022-11-30T06:35:17.867Z,68.94
2022-11-30T06:36:02.931Z,41.29
2022-11-30T06:36:47.966Z,20.73
2022-11-30T06:37:33.240Z,67.94
2022-11-30T06:38:18.111Z,64.94
2022-11-30T06:39:03.239Z,53.93
2022-11-30T06:40:05.935Z,53.95
2022-11-30T06:40:33.178Z,48.96
2022-11-30T06:41:18.373Z,68.94
2022-11-30T06:42:03.493Z,78.93
2022-11-30T06:42:48.413Z,79.93
2022-11-30T06:43:33.281Z,77.93
2022-11-30T06:44:18.560Z,79.93
2022-11-30T06:45:03.593Z,70.94
2022-11-30T06:45:48.685Z,73.89
2022-11-30T06:46:33.742Z,76.93
2022-11-30T06:47:18.464Z,70.89
2022-11-30T06:48:03.505Z,4.25
2022-11-30T06:48:48.969Z,66.90
2022-11-30T06:49:35.490Z,66.90
2022-11-30T06:50:20.898Z,66.90
2022-11-30T06:51:04.132Z,66.90
2022-11-30T06:51:49.701Z,66.90
2022-11-30T06:52:36.215Z,66.90
2022-11-30T06:53:20.858Z,66.90
2022-11-30T06:54:06.341Z,66.90
2022-11-30T06:54:49.430Z,66.90
2022-11-30T06:55:34.308Z,66.90
2022-11-30T06:56:19.332Z,66.90
2022-11-30T06:57:06.373Z,6.23
2022-11-30T06:57:49.135Z,11.14
2022-11-30T06:58:34.108Z,18.75
2022-11-30T06:59:19.146Z,67.91
2022-11-30T07:00:04.305Z,72.89
2022-11-30T07:00:51.524Z,72.89
2022-11-30T07:01:36.176Z,10.98
2022-11-30T07:02:19.486Z,10.98
2022-11-30T07:03:04.546Z,18.29
2022-11-30T07:03:49.523Z,60.47
2022-11-30T07:04:34.536Z,13.59
2022-11-30T07:05:19.918Z,13.33
2022-11-30T07:06:04.757Z,13.33
2022-11-30T07:06:50.653Z,10.04
2022-11-30T07:07:35.049Z,10.04
2022-11-30T07:08:20.783Z,10.04
2022-11-30T07:09:05.140Z,10.04
2022-11-30T07:09:50.054Z,50.96
2022-11-30T07:10:34.592Z,45.96
2022-11-30T07:11:20.122Z,70.94
2022-11-30T07:12:05.432Z,56.95
2022-11-30T07:12:50.430Z,56.95
2022-11-30T07:13:37.271Z,56.95
2022-11-30T07:14:20.680Z,56.95
2022-11-30T07:15:05.735Z,56.95
2022-11-30T07:15:50.913Z,56.95
2022-11-30T07:16:35.994Z,56.95
2022-11-30T07:17:20.725Z,56.95
2022-11-30T07:18:07.212Z,56.95
2022-11-30T07:18:50.965Z,56.95
2022-11-30T07:19:36.045Z,56.95
2022-11-30T07:20:21.136Z,56.95
2022-11-30T07:21:06.192Z,56.95
2022-11-30T07:21:51.862Z,56.95
2022-11-30T07:22:36.338Z,56.95
2022-11-30T07:23:21.196Z,56.95
2022-11-30T07:24:06.822Z,56.95
2022-11-30T07:24:51.364Z,56.95
2022-11-30T07:25:36.363Z,56.95
2022-11-30T07:26:21.376Z,56.95
2022-11-30T07:27:06.362Z,56.95
2022-11-30T07:27:51.496Z,56.95
2022-11-30T07:28:36.582Z,56.95
2022-11-30T07:29:21.641Z,56.95
2022-11-30T07:30:06.570Z,56.95
2022-11-30T07:30:51.975Z,56.95
2022-11-30T07:31:36.912Z,56.95
2022-11-30T07:32:21.448Z,56.95
2022-11-30T07:33:06.985Z,56.95
2022-11-30T07:33:51.738Z,123.89
2022-11-30T07:34:37.001Z,123.89
2022-11-30T07:35:21.655Z,117.90
2022-11-30T07:36:06.931Z,81.93
2022-11-30T07:36:53.809Z,81.93
2022-11-30T07:37:38.149Z,81.93
2022-11-30T07:38:21.976Z,81.93
2022-11-30T07:39:07.545Z,12.74
2022-11-30T07:39:52.725Z,19.70
2022-11-30T07:40:36.981Z,9.34
2022-11-30T07:41:22.317Z,12.59
2022-11-30T07:42:07.565Z,13.43
2022-11-30T07:42:52.211Z,16.46
2022-11-30T07:43:37.268Z,13.02
2022-11-30T07:44:25.091Z,13.02
2022-11-30T07:45:08.848Z,13.02
2022-11-30T07:45:53.634Z,57.96
2022-11-30T07:46:37.184Z,54.95
2022-11-30T07:47:22.565Z,63.94
2022-11-30T07:48:07.638Z,73.94
2022-11-30T07:48:52.906Z,60.95
2022-11-30T07:49:37.725Z,60.95
2022-11-30T07:50:24.946Z,60.95
2022-11-30T07:51:08.503Z,60.95
2022-11-30T07:51:53.314Z,60.95
2022-11-30T07:52:38.254Z,60.95
2022-11-30T07:53:23.433Z,60.95
2022-11-30T07:54:08.570Z,60.95
2022-11-30T07:54:53.317Z,60.95
2022-11-30T07:55:39.087Z,60.95
2022-11-30T07:56:23.660Z,60.95
2022-11-30T07:57:08.666Z,60.95
2022-11-30T07:57:53.678Z,60.95
2022-11-30T07:58:38.812Z,60.95
2022-11-30T07:59:23.764Z,60.95
2022-11-30T08:00:08.612Z,60.95
2022-11-30T08:00:53.822Z,60.95
2022-11-30T08:01:39.704Z,60.95
2022-11-30T08:02:23.869Z,60.95
2022-11-30T08:03:08.835Z,60.95
2022-11-30T08:03:53.992Z,60.95
2022-11-30T08:04:38.779Z,105.92
2022-11-30T08:05:23.504Z,91.93
2022-11-30T08:06:09.064Z,73.95
2022-11-30T08:06:53.858Z,16.79
2022-11-30T08:07:38.902Z,62.95
2022-11-30T08:08:24.023Z,18.54
2022-11-30T08:09:08.876Z,9.55
2022-11-30T08:09:54.303Z,9.55
2022-11-30T08:10:39.508Z,9.55
2022-11-30T08:11:26.348Z,9.55
2022-11-30T08:12:09.514Z,9.55
2022-11-30T08:12:56.213Z,9.55
2022-11-30T08:13:41.578Z,9.55
2022-11-30T08:14:24.484Z,9.55
2022-11-30T08:15:19.844Z,9.55
2022-11-30T08:15:55.212Z,9.55
2022-11-30T08:16:39.771Z,9.55
2022-11-30T08:17:24.848Z,9.55
2022-11-30T08:18:09.671Z,9.55
2022-11-30T08:18:54.522Z,186.86
2022-11-30T08:19:39.566Z,101.91
2022-11-30T08:20:24.866Z,104.92
2022-11-30T08:21:09.712Z,91.88
2022-11-30T08:21:54.864Z,87.94
2022-11-30T08:22:39.703Z,86.89
2022-11-30T08:23:24.740Z,83.94
2022-11-30T08:24:10.000Z,84.94
2022-11-30T08:24:54.954Z,85.94
2022-11-30T08:25:40.137Z,83.94
2022-11-30T08:26:25.075Z,79.94
2022-11-30T08:27:10.171Z,80.94
2022-11-30T08:27:55.253Z,79.94
2022-11-30T08:28:40.261Z,80.93
2022-11-30T08:29:25.005Z,74.93
2022-11-30T08:30:09.763Z,75.93
2022-11-30T08:30:55.386Z,89.92
2022-11-30T08:31:40.574Z,89.92
2022-11-30T08:32:25.779Z,89.92
2022-11-30T08:33:10.709Z,89.92
2022-11-30T08:33:55.640Z,89.92
2022-11-30T08:34:40.803Z,89.92
2022-11-30T08:35:25.818Z,89.92
2022-11-30T08:36:10.704Z,89.92
2022-11-30T08:36:55.666Z,10.04
2022-11-30T08:37:42.912Z,10.04
2022-11-30T08:38:27.829Z,10.04
2022-11-30T08:39:11.065Z,10.04
2022-11-30T08:39:55.983Z,10.04
2022-11-30T08:40:41.364Z,10.04
2022-11-30T08:41:26.242Z,10.04
2022-11-30T08:42:11.152Z,10.04
2022-11-30T08:42:56.657Z,10.04
2022-11-30T08:43:41.381Z,10.04
2022-11-30T08:44:26.236Z,10.04
2022-11-30T08:45:11.506Z,10.04
2022-11-30T08:45:57.460Z,10.04
2022-11-30T08:46:52.382Z,10.04
2022-11-30T08:47:26.602Z,10.04
2022-11-30T08:48:11.725Z,10.04
2022-11-30T08:49:13.122Z,10.04
2022-11-30T08:49:41.812Z,10.04
2022-11-30T08:50:27.030Z,10.04
2022-11-30T08:51:12.161Z,10.04
2022-11-30T08:52:17.458Z,10.04
2022-11-30T08:52:43.627Z,10.04
2022-11-30T08:53:30.645Z,10.04
2022-11-30T08:54:12.272Z,10.04
2022-11-30T08:54:57.732Z,10.04
2022-11-30T08:55:41.977Z,10.04
2022-11-30T08:56:27.130Z,10.04
2022-11-30T08:57:12.392Z,10.04
2022-11-30T08:57:57.237Z,10.04
2022-11-30T08:58:42.284Z,10.04
2022-11-30T08:59:27.761Z,10.04
2022-11-30T09:00:12.315Z,10.04
2022-11-30T09:00:57.368Z,10.04
2022-11-30T09:01:42.541Z,10.04
2022-11-30T09:02:27.719Z,10.04
2022-11-30T09:03:12.770Z,10.04
2022-11-30T09:03:57.587Z,10.04
2022-11-30T09:04:43.259Z,10.04
2022-11-30T09:05:29.644Z,10.04
2022-11-30T09:06:12.477Z,6.80
2022-11-30T09:06:59.599Z,7.06
2022-11-30T09:07:43.807Z,7.06
2022-11-30T09:08:31.408Z,7.06
2022-11-30T09:09:14.941Z,7.06
2022-11-30T09:09:58.771Z,7.06
2022-11-30T09:10:42.995Z,7.06
2022-11-30T09:11:28.068Z,7.06
2022-11-30T09:12:13.106Z,7.06
2022-11-30T09:12:58.065Z,7.06
2022-11-30T09:13:43.072Z,7.06
2022-11-30T09:14:29.625Z,7.06
2022-11-30T09:15:15.248Z,7.06
2022-11-30T09:15:58.130Z,7.06
2022-11-30T09:16:43.239Z,7.06
2022-11-30T09:17:28.296Z,9.45
2022-11-30T09:18:13.043Z,14.09
2022-11-30T09:19:00.274Z,14.09
2022-11-30T09:19:45.816Z,14.09
2022-11-30T09:20:30.425Z,14.09
2022-11-30T09:21:13.483Z,8.39
2022-11-30T09:21:58.612Z,6.49
2022-11-30T09:22:43.994Z,8.59
2022-11-30T09:23:28.450Z,74.95
2022-11-30T09:24:13.399Z,72.95
2022-11-30T09:24:58.549Z,75.94
2022-11-30T09:25:43.915Z,75.94
2022-11-30T09:26:29.038Z,75.94
2022-11-30T09:27:13.842Z,9.95
2022-11-30T09:27:58.881Z,9.55
2022-11-30T09:28:43.902Z,72.94
2022-11-30T09:29:28.863Z,76.94
2022-11-30T09:30:13.945Z,16.14
2022-11-30T09:30:59.271Z,87.94
2022-11-30T09:31:44.263Z,84.94
2022-11-30T09:32:29.222Z,84.94
2022-11-30T09:33:14.084Z,84.94
2022-11-30T09:33:59.134Z,83.94
2022-11-30T09:34:44.255Z,83.94
2022-11-30T09:35:29.452Z,83.94
2022-11-30T09:36:14.294Z,75.94
2022-11-30T09:36:59.157Z,76.94
2022-11-30T09:37:44.510Z,75.94
2022-11-30T09:38:30.085Z,75.94
2022-11-30T09:39:14.627Z,73.94
2022-11-30T09:39:59.575Z,71.94
2022-11-30T09:40:44.648Z,71.94